sensor_id;sensor_type;location;lat;lon;timestamp;P1;durP1;ratioP1;P2;durP2;ratioP2
53036;SDS011;38924;52.134;4.666;2023-04-27T00:02:17;8.35;;;6.00;;
53036;SDS011;38924;52.134;4.666;2023-04-27T00:04:42;14.68;;;7.95;;
53036;SDS011;38924;52.134;4.666;2023-04-27T00:07:08;41.78;;;16.17;;
53036;SDS011;38924;52.134;4.666;2023-04-27T00:09:37;42.67;;;17.50;;
53036;SDS011;38924;52.134;4.666;2023-04-27T00:12:02;29.80;;;13.65;;
53036;SDS011;38924;52.134;4.666;2023-04-27T00:14:28;37.35;;;17.92;;
53036;SDS011;38924;52.134;4.666;2023-04-27T00:17:01;39.95;;;16.42;;
53036;SDS011;38924;52.134;4.666;2023-04-27T00:19:27;32.40;;;14.40;;
53036;SDS011;38924;52.134;4.666;2023-04-27T00:21:54;32.72;;;15.15;;
53036;SDS011;38924;52.134;4.666;2023-04-27T00:24:22;28.85;;;12.68;;
53036;SDS011;38924;52.134;4.666;2023-04-27T00:26:47;18.27;;;9.05;;
53036;SDS011;38924;52.134;4.666;2023-04-27T00:29:13;16.85;;;8.05;;
53036;SDS011;38924;52.134;4.666;2023-04-27T00:31:39;13.57;;;8.77;;
53036;SDS011;38924;52.134;4.666;2023-04-27T00:34:04;11.90;;;7.80;;
53036;SDS011;38924;52.134;4.666;2023-04-27T00:36:32;13.90;;;8.82;;
53036;SDS011;38924;52.134;4.666;2023-04-27T00:38:57;14.93;;;9.15;;
53036;SDS011;38924;52.134;4.666;2023-04-27T00:41:23;14.30;;;8.27;;
53036;SDS011;38924;52.134;4.666;2023-04-27T00:43:49;12.43;;;7.82;;
53036;SDS011;38924;52.134;4.666;2023-04-27T00:46:14;10.35;;;7.60;;
53036;SDS011;38924;52.134;4.666;2023-04-27T00:48:44;12.65;;;7.38;;
53036;SDS011;38924;52.134;4.666;2023-04-27T00:51:10;16.02;;;8.55;;
53036;SDS011;38924;52.134;4.666;2023-04-27T00:53:36;19.45;;;11.00;;
53036;SDS011;38924;52.134;4.666;2023-04-27T00:56:02;19.65;;;11.52;;
53036;SDS011;38924;52.134;4.666;2023-04-27T00:58:28;21.67;;;11.73;;
53036;SDS011;38924;52.134;4.666;2023-04-27T01:00:54;35.63;;;15.48;;
53036;SDS011;38924;52.134;4.666;2023-04-27T01:03:19;32.15;;;16.95;;
53036;SDS011;38924;52.134;4.666;2023-04-27T01:05:45;29.88;;;15.35;;
53036;SDS011;38924;52.134;4.666;2023-04-27T01:08:11;31.55;;;14.77;;
53036;SDS011;38924;52.134;4.666;2023-04-27T01:10:36;28.27;;;13.43;;
53036;SDS011;38924;52.134;4.666;2023-04-27T01:13:02;24.08;;;12.45;;
53036;SDS011;38924;52.134;4.666;2023-04-27T01:15:29;36.47;;;15.10;;
53036;SDS011;38924;52.134;4.666;2023-04-27T01:17:58;21.08;;;11.60;;
53036;SDS011;38924;52.134;4.666;2023-04-27T01:20:26;32.50;;;15.50;;
53036;SDS011;38924;52.134;4.666;2023-04-27T01:22:55;35.85;;;17.20;;
53036;SDS011;38924;52.134;4.666;2023-04-27T01:25:21;33.95;;;15.23;;
53036;SDS011;38924;52.134;4.666;2023-04-27T01:27:47;21.15;;;10.35;;
53036;SDS011;38924;52.134;4.666;2023-04-27T01:30:12;13.52;;;8.60;;
53036;SDS011;38924;52.134;4.666;2023-04-27T01:32:38;9.75;;;7.20;;
53036;SDS011;38924;52.134;4.666;2023-04-27T01:35:04;12.43;;;8.25;;
53036;SDS011;38924;52.134;4.666;2023-04-27T01:37:30;11.70;;;8.10;;
53036;SDS011;38924;52.134;4.666;2023-04-27T01:39:59;10.45;;;7.63;;
53036;SDS011;38924;52.134;4.666;2023-04-27T01:42:24;13.20;;;7.60;;
53036;SDS011;38924;52.134;4.666;2023-04-27T01:44:50;12.73;;;7.18;;
53036;SDS011;38924;52.134;4.666;2023-04-27T01:47:16;16.15;;;8.50;;
53036;SDS011;38924;52.134;4.666;2023-04-27T01:49:42;12.13;;;8.30;;
53036;SDS011;38924;52.134;4.666;2023-04-27T01:52:07;16.48;;;7.68;;
53036;SDS011;38924;52.134;4.666;2023-04-27T01:54:33;22.05;;;8.20;;
53036;SDS011;38924;52.134;4.666;2023-04-27T01:56:59;9.88;;;7.20;;
53036;SDS011;38924;52.134;4.666;2023-04-27T01:59:26;19.30;;;8.23;;
53036;SDS011;38924;52.134;4.666;2023-04-27T02:01:52;12.15;;;7.68;;
53036;SDS011;38924;52.134;4.666;2023-04-27T02:04:18;13.98;;;8.57;;
53036;SDS011;38924;52.134;4.666;2023-04-27T02:06:44;12.52;;;7.63;;
53036;SDS011;38924;52.134;4.666;2023-04-27T02:09:11;11.05;;;7.85;;
53036;SDS011;38924;52.134;4.666;2023-04-27T02:11:39;9.68;;;7.68;;
53036;SDS011;38924;52.134;4.666;2023-04-27T02:14:05;11.77;;;7.97;;
53036;SDS011;38924;52.134;4.666;2023-04-27T02:16:30;10.40;;;7.47;;
53036;SDS011;38924;52.134;4.666;2023-04-27T02:19:00;13.57;;;7.65;;
53036;SDS011;38924;52.134;4.666;2023-04-27T02:21:26;17.05;;;8.40;;
53036;SDS011;38924;52.134;4.666;2023-04-27T02:23:52;15.55;;;8.07;;
53036;SDS011;38924;52.134;4.666;2023-04-27T02:26:18;12.73;;;7.28;;
53036;SDS011;38924;52.134;4.666;2023-04-27T02:28:45;10.13;;;7.78;;
53036;SDS011;38924;52.134;4.666;2023-04-27T02:31:12;13.88;;;7.40;;
53036;SDS011;38924;52.134;4.666;2023-04-27T02:33:38;10.98;;;6.90;;
53036;SDS011;38924;52.134;4.666;2023-04-27T02:36:04;14.52;;;7.97;;
53036;SDS011;38924;52.134;4.666;2023-04-27T02:38:30;12.90;;;7.78;;
53036;SDS011;38924;52.134;4.666;2023-04-27T02:40:55;13.73;;;7.85;;
53036;SDS011;38924;52.134;4.666;2023-04-27T02:43:21;17.58;;;8.23;;
53036;SDS011;38924;52.134;4.666;2023-04-27T02:45:47;11.27;;;7.60;;
53036;SDS011;38924;52.134;4.666;2023-04-27T02:48:12;16.02;;;8.73;;
53036;SDS011;38924;52.134;4.666;2023-04-27T02:50:41;13.32;;;7.82;;
53036;SDS011;38924;52.134;4.666;2023-04-27T02:53:08;16.40;;;8.82;;
53036;SDS011;38924;52.134;4.666;2023-04-27T02:55:34;15.45;;;7.78;;
53036;SDS011;38924;52.134;4.666;2023-04-27T02:57:59;11.63;;;7.35;;
53036;SDS011;38924;52.134;4.666;2023-04-27T03:00:25;14.20;;;8.40;;
53036;SDS011;38924;52.134;4.666;2023-04-27T03:02:51;16.75;;;7.88;;
53036;SDS011;38924;52.134;4.666;2023-04-27T03:05:17;15.10;;;7.70;;
53036;SDS011;38924;52.134;4.666;2023-04-27T03:07:43;12.68;;;6.90;;
53036;SDS011;38924;52.134;4.666;2023-04-27T03:10:08;15.07;;;8.95;;
53036;SDS011;38924;52.134;4.666;2023-04-27T03:12:34;11.05;;;7.15;;
53036;SDS011;38924;52.134;4.666;2023-04-27T03:15:00;9.38;;;6.60;;
53036;SDS011;38924;52.134;4.666;2023-04-27T03:17:26;11.52;;;6.97;;
53036;SDS011;38924;52.134;4.666;2023-04-27T03:19:52;8.43;;;6.30;;
53036;SDS011;38924;52.134;4.666;2023-04-27T03:22:17;7.07;;;6.10;;
53036;SDS011;38924;52.134;4.666;2023-04-27T03:24:43;11.85;;;6.47;;
53036;SDS011;38924;52.134;4.666;2023-04-27T03:27:08;9.52;;;5.78;;
53036;SDS011;38924;52.134;4.666;2023-04-27T03:29:34;8.98;;;6.60;;
53036;SDS011;38924;52.134;4.666;2023-04-27T03:32:00;10.77;;;6.70;;
53036;SDS011;38924;52.134;4.666;2023-04-27T03:34:26;13.40;;;7.28;;
53036;SDS011;38924;52.134;4.666;2023-04-27T03:36:51;10.68;;;7.00;;
53036;SDS011;38924;52.134;4.666;2023-04-27T03:39:17;11.73;;;6.72;;
53036;SDS011;38924;52.134;4.666;2023-04-27T03:41:43;9.43;;;6.55;;
53036;SDS011;38924;52.134;4.666;2023-04-27T03:44:09;11.23;;;6.15;;
53036;SDS011;38924;52.134;4.666;2023-04-27T03:46:35;11.45;;;6.32;;
53036;SDS011;38924;52.134;4.666;2023-04-27T03:49:01;10.38;;;7.60;;
53036;SDS011;38924;52.134;4.666;2023-04-27T03:51:28;8.73;;;6.22;;
53036;SDS011;38924;52.134;4.666;2023-04-27T03:53:54;10.18;;;7.45;;
53036;SDS011;38924;52.134;4.666;2023-04-27T03:56:20;11.73;;;6.93;;
53036;SDS011;38924;52.134;4.666;2023-04-27T03:58:45;12.82;;;7.57;;
53036;SDS011;38924;52.134;4.666;2023-04-27T04:01:16;10.13;;;7.28;;
53036;SDS011;38924;52.134;4.666;2023-04-27T04:03:43;12.63;;;5.97;;
53036;SDS011;38924;52.134;4.666;2023-04-27T04:06:10;12.70;;;7.05;;
53036;SDS011;38924;52.134;4.666;2023-04-27T04:08:36;12.63;;;7.22;;
53036;SDS011;38924;52.134;4.666;2023-04-27T04:11:02;16.13;;;6.93;;
53036;SDS011;38924;52.134;4.666;2023-04-27T04:13:28;10.98;;;7.35;;
53036;SDS011;38924;52.134;4.666;2023-04-27T04:16:04;17.63;;;7.20;;
53036;SDS011;38924;52.134;4.666;2023-04-27T04:18:30;9.82;;;7.05;;
53036;SDS011;38924;52.134;4.666;2023-04-27T04:20:56;13.27;;;7.60;;
53036;SDS011;38924;52.134;4.666;2023-04-27T04:23:22;13.70;;;7.47;;
53036;SDS011;38924;52.134;4.666;2023-04-27T04:25:48;14.55;;;7.13;;
53036;SDS011;38924;52.134;4.666;2023-04-27T04:28:14;11.52;;;6.93;;
53036;SDS011;38924;52.134;4.666;2023-04-27T04:30:40;12.88;;;7.38;;
53036;SDS011;38924;52.134;4.666;2023-04-27T04:33:05;11.27;;;7.72;;
53036;SDS011;38924;52.134;4.666;2023-04-27T04:35:38;10.73;;;6.72;;
53036;SDS011;38924;52.134;4.666;2023-04-27T04:38:03;15.27;;;7.53;;
53036;SDS011;38924;52.134;4.666;2023-04-27T04:40:29;13.18;;;7.90;;
53036;SDS011;38924;52.134;4.666;2023-04-27T04:42:54;10.02;;;7.10;;
53036;SDS011;38924;52.134;4.666;2023-04-27T04:45:30;12.05;;;7.28;;
53036;SDS011;38924;52.134;4.666;2023-04-27T04:47:56;12.20;;;7.13;;
53036;SDS011;38924;52.134;4.666;2023-04-27T04:50:23;12.73;;;7.63;;
53036;SDS011;38924;52.134;4.666;2023-04-27T04:52:49;12.07;;;6.72;;
53036;SDS011;38924;52.134;4.666;2023-04-27T04:55:15;16.90;;;9.32;;
53036;SDS011;38924;52.134;4.666;2023-04-27T04:57:41;12.68;;;7.82;;
53036;SDS011;38924;52.134;4.666;2023-04-27T05:00:07;14.43;;;7.68;;
53036;SDS011;38924;52.134;4.666;2023-04-27T05:02:37;12.07;;;6.50;;
53036;SDS011;38924;52.134;4.666;2023-04-27T05:05:02;9.57;;;6.85;;
53036;SDS011;38924;52.134;4.666;2023-04-27T05:07:28;15.75;;;7.10;;
53036;SDS011;38924;52.134;4.666;2023-04-27T05:09:54;15.00;;;7.25;;
53036;SDS011;38924;52.134;4.666;2023-04-27T05:12:20;11.73;;;6.72;;
53036;SDS011;38924;52.134;4.666;2023-04-27T05:14:49;12.80;;;6.50;;
53036;SDS011;38924;52.134;4.666;2023-04-27T05:17:15;12.75;;;6.15;;
53036;SDS011;38924;52.134;4.666;2023-04-27T05:19:43;18.58;;;7.25;;
53036;SDS011;38924;52.134;4.666;2023-04-27T05:22:12;12.27;;;7.15;;
53036;SDS011;38924;52.134;4.666;2023-04-27T05:24:37;14.10;;;7.70;;
53036;SDS011;38924;52.134;4.666;2023-04-27T05:27:03;9.90;;;6.88;;
53036;SDS011;38924;52.134;4.666;2023-04-27T05:29:29;15.13;;;6.82;;
53036;SDS011;38924;52.134;4.666;2023-04-27T05:31:55;12.27;;;6.18;;
53036;SDS011;38924;52.134;4.666;2023-04-27T05:34:20;15.13;;;6.47;;
53036;SDS011;38924;52.134;4.666;2023-04-27T05:36:46;13.02;;;6.47;;
53036;SDS011;38924;52.134;4.666;2023-04-27T05:39:12;11.48;;;6.03;;
53036;SDS011;38924;52.134;4.666;2023-04-27T05:41:38;10.90;;;5.70;;
53036;SDS011;38924;52.134;4.666;2023-04-27T05:44:06;12.50;;;6.85;;
53036;SDS011;38924;52.134;4.666;2023-04-27T05:46:32;13.52;;;6.93;;
53036;SDS011;38924;52.134;4.666;2023-04-27T05:48:58;8.43;;;6.18;;
53036;SDS011;38924;52.134;4.666;2023-04-27T05:51:23;9.18;;;6.05;;
53036;SDS011;38924;52.134;4.666;2023-04-27T05:53:49;8.65;;;5.25;;
53036;SDS011;38924;52.134;4.666;2023-04-27T05:56:15;10.82;;;5.90;;
53036;SDS011;38924;52.134;4.666;2023-04-27T05:58:40;8.90;;;5.80;;
53036;SDS011;38924;52.134;4.666;2023-04-27T06:01:06;7.40;;;5.82;;
53036;SDS011;38924;52.134;4.666;2023-04-27T06:03:32;10.50;;;5.85;;
53036;SDS011;38924;52.134;4.666;2023-04-27T06:05:59;8.93;;;5.57;;
53036;SDS011;38924;52.134;4.666;2023-04-27T06:08:25;9.88;;;5.13;;
53036;SDS011;38924;52.134;4.666;2023-04-27T06:10:51;23.00;;;5.93;;
53036;SDS011;38924;52.134;4.666;2023-04-27T06:13:17;11.70;;;5.78;;
53036;SDS011;38924;52.134;4.666;2023-04-27T06:15:43;8.25;;;5.03;;
53036;SDS011;38924;52.134;4.666;2023-04-27T06:18:09;9.90;;;5.30;;
53036;SDS011;38924;52.134;4.666;2023-04-27T06:20:34;10.10;;;5.50;;
53036;SDS011;38924;52.134;4.666;2023-04-27T06:23:01;10.95;;;5.65;;
53036;SDS011;38924;52.134;4.666;2023-04-27T06:25:26;15.52;;;5.57;;
53036;SDS011;38924;52.134;4.666;2023-04-27T06:27:53;7.28;;;5.05;;
53036;SDS011;38924;52.134;4.666;2023-04-27T06:30:19;14.90;;;6.72;;
53036;SDS011;38924;52.134;4.666;2023-04-27T06:32:45;9.10;;;5.13;;
53036;SDS011;38924;52.134;4.666;2023-04-27T06:35:10;9.43;;;5.03;;
53036;SDS011;38924;52.134;4.666;2023-04-27T06:37:36;9.90;;;4.20;;
53036;SDS011;38924;52.134;4.666;2023-04-27T06:40:02;10.20;;;4.70;;
53036;SDS011;38924;52.134;4.666;2023-04-27T06:42:28;13.00;;;5.35;;
53036;SDS011;38924;52.134;4.666;2023-04-27T06:44:54;9.45;;;4.35;;
53036;SDS011;38924;52.134;4.666;2023-04-27T06:47:23;8.68;;;4.72;;
53036;SDS011;38924;52.134;4.666;2023-04-27T06:49:49;11.00;;;4.95;;
53036;SDS011;38924;52.134;4.666;2023-04-27T06:52:18;13.02;;;6.57;;
53036;SDS011;38924;52.134;4.666;2023-04-27T06:54:43;9.02;;;4.07;;
53036;SDS011;38924;52.134;4.666;2023-04-27T06:57:09;10.43;;;4.93;;
53036;SDS011;38924;52.134;4.666;2023-04-27T06:59:35;6.93;;;3.97;;
53036;SDS011;38924;52.134;4.666;2023-04-27T07:02:01;8.23;;;3.70;;
53036;SDS011;38924;52.134;4.666;2023-04-27T07:04:26;11.60;;;3.97;;
53036;SDS011;38924;52.134;4.666;2023-04-27T07:06:52;10.57;;;4.07;;
53036;SDS011;38924;52.134;4.666;2023-04-27T07:09:17;6.47;;;3.60;;
53036;SDS011;38924;52.134;4.666;2023-04-27T07:11:43;7.47;;;4.07;;
53036;SDS011;38924;52.134;4.666;2023-04-27T07:14:09;5.82;;;3.65;;
53036;SDS011;38924;52.134;4.666;2023-04-27T07:16:35;9.05;;;3.78;;
53036;SDS011;38924;52.134;4.666;2023-04-27T07:19:03;9.57;;;5.32;;
53036;SDS011;38924;52.134;4.666;2023-04-27T07:21:29;7.25;;;3.47;;
53036;SDS011;38924;52.134;4.666;2023-04-27T07:23:57;9.77;;;3.65;;
53036;SDS011;38924;52.134;4.666;2023-04-27T07:26:23;8.02;;;3.60;;
53036;SDS011;38924;52.134;4.666;2023-04-27T07:28:49;6.18;;;3.60;;
53036;SDS011;38924;52.134;4.666;2023-04-27T07:31:15;8.52;;;3.78;;
53036;SDS011;38924;52.134;4.666;2023-04-27T07:33:40;5.82;;;3.75;;
53036;SDS011;38924;52.134;4.666;2023-04-27T07:36:06;10.32;;;3.92;;
53036;SDS011;38924;52.134;4.666;2023-04-27T07:38:32;5.95;;;3.92;;
53036;SDS011;38924;52.134;4.666;2023-04-27T07:40:59;8.68;;;4.07;;
53036;SDS011;38924;52.134;4.666;2023-04-27T07:43:26;7.63;;;4.20;;
53036;SDS011;38924;52.134;4.666;2023-04-27T07:45:52;10.82;;;4.60;;
53036;SDS011;38924;52.134;4.666;2023-04-27T07:48:18;8.52;;;3.97;;
53036;SDS011;38924;52.134;4.666;2023-04-27T07:50:44;8.20;;;3.88;;
53036;SDS011;38924;52.134;4.666;2023-04-27T07:53:10;10.02;;;5.68;;
53036;SDS011;38924;52.134;4.666;2023-04-27T07:55:36;9.40;;;4.30;;
53036;SDS011;38924;52.134;4.666;2023-04-27T07:58:02;9.68;;;4.53;;
53036;SDS011;38924;52.134;4.666;2023-04-27T08:00:28;9.13;;;5.00;;
53036;SDS011;38924;52.134;4.666;2023-04-27T08:02:54;9.95;;;5.20;;
53036;SDS011;38924;52.134;4.666;2023-04-27T08:05:20;7.88;;;4.35;;
53036;SDS011;38924;52.134;4.666;2023-04-27T08:07:45;9.88;;;3.70;;
53036;SDS011;38924;52.134;4.666;2023-04-27T08:10:11;6.78;;;4.13;;
53036;SDS011;38924;52.134;4.666;2023-04-27T08:12:37;8.40;;;4.20;;
53036;SDS011;38924;52.134;4.666;2023-04-27T08:15:06;9.90;;;4.50;;
53036;SDS011;38924;52.134;4.666;2023-04-27T08:17:32;6.35;;;4.05;;
53036;SDS011;38924;52.134;4.666;2023-04-27T08:19:57;3.85;;;3.45;;
53036;SDS011;38924;52.134;4.666;2023-04-27T08:22:23;8.70;;;4.68;;
53036;SDS011;38924;52.134;4.666;2023-04-27T08:24:49;6.68;;;4.15;;
53036;SDS011;38924;52.134;4.666;2023-04-27T08:27:14;11.35;;;4.15;;
53036;SDS011;38924;52.134;4.666;2023-04-27T08:29:44;5.15;;;3.38;;
53036;SDS011;38924;52.134;4.666;2023-04-27T08:32:09;10.80;;;4.10;;
53036;SDS011;38924;52.134;4.666;2023-04-27T08:34:35;8.45;;;4.00;;
53036;SDS011;38924;52.134;4.666;2023-04-27T08:37:02;6.60;;;3.75;;
53036;SDS011;38924;52.134;4.666;2023-04-27T08:39:28;11.13;;;4.25;;
53036;SDS011;38924;52.134;4.666;2023-04-27T08:41:54;5.50;;;3.88;;
53036;SDS011;38924;52.134;4.666;2023-04-27T08:44:20;10.73;;;4.47;;
53036;SDS011;38924;52.134;4.666;2023-04-27T08:46:46;27.35;;;12.68;;
53036;SDS011;38924;52.134;4.666;2023-04-27T08:49:11;10.45;;;4.50;;
53036;SDS011;38924;52.134;4.666;2023-04-27T08:51:37;5.63;;;3.67;;
53036;SDS011;38924;52.134;4.666;2023-04-27T08:54:03;10.52;;;4.57;;
53036;SDS011;38924;52.134;4.666;2023-04-27T08:56:29;15.82;;;5.03;;
53036;SDS011;38924;52.134;4.666;2023-04-27T08:58:55;7.70;;;4.05;;
53036;SDS011;38924;52.134;4.666;2023-04-27T09:01:21;10.93;;;4.22;;
53036;SDS011;38924;52.134;4.666;2023-04-27T09:03:48;7.95;;;3.47;;
53036;SDS011;38924;52.134;4.666;2023-04-27T09:06:14;6.90;;;3.45;;
53036;SDS011;38924;52.134;4.666;2023-04-27T09:08:58;9.52;;;3.70;;
53036;SDS011;38924;52.134;4.666;2023-04-27T09:11:31;5.72;;;3.65;;
53036;SDS011;38924;52.134;4.666;2023-04-27T09:13:58;10.32;;;3.50;;
53036;SDS011;38924;52.134;4.666;2023-04-27T09:16:25;9.68;;;3.58;;
53036;SDS011;38924;52.134;4.666;2023-04-27T09:18:52;6.45;;;3.88;;
53036;SDS011;38924;52.134;4.666;2023-04-27T09:21:28;8.07;;;3.20;;
53036;SDS011;38924;52.134;4.666;2023-04-27T09:23:54;7.43;;;3.78;;
53036;SDS011;38924;52.134;4.666;2023-04-27T09:26:23;5.43;;;3.30;;
53036;SDS011;38924;52.134;4.666;2023-04-27T09:28:50;6.25;;;2.95;;
53036;SDS011;38924;52.134;4.666;2023-04-27T09:31:16;8.15;;;3.35;;
53036;SDS011;38924;52.134;4.666;2023-04-27T09:33:42;12.27;;;3.80;;
53036;SDS011;38924;52.134;4.666;2023-04-27T09:36:08;7.75;;;3.88;;
53036;SDS011;38924;52.134;4.666;2023-04-27T09:38:38;7.38;;;3.85;;
53036;SDS011;38924;52.134;4.666;2023-04-27T09:41:04;7.13;;;3.25;;
53036;SDS011;38924;52.134;4.666;2023-04-27T09:43:30;6.45;;;3.05;;
53036;SDS011;38924;52.134;4.666;2023-04-27T09:45:57;4.60;;;3.45;;
53036;SDS011;38924;52.134;4.666;2023-04-27T09:48:23;10.13;;;3.72;;
53036;SDS011;38924;52.134;4.666;2023-04-27T09:50:51;4.55;;;2.90;;
53036;SDS011;38924;52.134;4.666;2023-04-27T09:53:29;5.15;;;3.50;;
53036;SDS011;38924;52.134;4.666;2023-04-27T09:58:57;7.90;;;3.13;;
53036;SDS011;38924;52.134;4.666;2023-04-27T10:01:29;5.05;;;3.15;;
53036;SDS011;38924;52.134;4.666;2023-04-27T10:08:55;8.23;;;3.45;;
53036;SDS011;38924;52.134;4.666;2023-04-27T10:11:32;5.93;;;3.75;;
53036;SDS011;38924;52.134;4.666;2023-04-27T10:13:57;7.70;;;3.92;;
53036;SDS011;38924;52.134;4.666;2023-04-27T10:16:38;10.52;;;3.45;;
53036;SDS011;38924;52.134;4.666;2023-04-27T10:19:07;5.85;;;3.50;;
53036;SDS011;38924;52.134;4.666;2023-04-27T10:21:34;5.22;;;3.40;;
53036;SDS011;38924;52.134;4.666;2023-04-27T10:24:05;7.32;;;3.67;;
53036;SDS011;38924;52.134;4.666;2023-04-27T10:26:31;8.75;;;3.65;;
53036;SDS011;38924;52.134;4.666;2023-04-27T10:28:57;9.95;;;3.88;;
53036;SDS011;38924;52.134;4.666;2023-04-27T10:31:27;10.50;;;3.35;;
53036;SDS011;38924;52.134;4.666;2023-04-27T10:34:03;5.82;;;2.92;;
53036;SDS011;38924;52.134;4.666;2023-04-27T10:36:38;6.90;;;3.47;;
53036;SDS011;38924;52.134;4.666;2023-04-27T10:39:15;10.60;;;3.38;;
53036;SDS011;38924;52.134;4.666;2023-04-27T10:41:48;4.47;;;3.47;;
53036;SDS011;38924;52.134;4.666;2023-04-27T10:44:24;9.80;;;3.53;;
53036;SDS011;38924;52.134;4.666;2023-04-27T10:46:50;9.63;;;4.60;;
53036;SDS011;38924;52.134;4.666;2023-04-27T10:49:16;7.75;;;4.80;;
53036;SDS011;38924;52.134;4.666;2023-04-27T10:51:42;9.73;;;3.67;;
53036;SDS011;38924;52.134;4.666;2023-04-27T10:54:08;7.15;;;4.05;;
53036;SDS011;38924;52.134;4.666;2023-04-27T10:56:34;10.02;;;4.45;;
53036;SDS011;38924;52.134;4.666;2023-04-27T10:59:03;6.38;;;3.85;;
53036;SDS011;38924;52.134;4.666;2023-04-27T11:01:29;6.38;;;3.72;;
53036;SDS011;38924;52.134;4.666;2023-04-27T11:03:55;5.18;;;4.22;;
53036;SDS011;38924;52.134;4.666;2023-04-27T11:06:21;7.70;;;4.22;;
53036;SDS011;38924;52.134;4.666;2023-04-27T11:08:47;5.15;;;3.58;;
53036;SDS011;38924;52.134;4.666;2023-04-27T11:11:13;8.73;;;4.38;;
53036;SDS011;38924;52.134;4.666;2023-04-27T11:13:39;6.80;;;3.85;;
53036;SDS011;38924;52.134;4.666;2023-04-27T11:16:07;6.82;;;3.72;;
53036;SDS011;38924;52.134;4.666;2023-04-27T11:18:35;8.45;;;3.70;;
53036;SDS011;38924;52.134;4.666;2023-04-27T11:21:07;4.82;;;3.78;;
53036;SDS011;38924;52.134;4.666;2023-04-27T11:23:34;9.88;;;4.10;;
53036;SDS011;38924;52.134;4.666;2023-04-27T11:26:18;7.13;;;4.38;;
53036;SDS011;38924;52.134;4.666;2023-04-27T11:29:00;7.38;;;4.03;;
53036;SDS011;38924;52.134;4.666;2023-04-27T11:31:26;8.60;;;3.85;;
53036;SDS011;38924;52.134;4.666;2023-04-27T11:33:52;8.15;;;4.10;;
53036;SDS011;38924;52.134;4.666;2023-04-27T11:36:18;7.55;;;4.28;;
53036;SDS011;38924;52.134;4.666;2023-04-27T11:38:44;11.18;;;4.40;;
53036;SDS011;38924;52.134;4.666;2023-04-27T11:41:13;6.10;;;4.45;;
53036;SDS011;38924;52.134;4.666;2023-04-27T11:43:40;7.93;;;4.10;;
53036;SDS011;38924;52.134;4.666;2023-04-27T11:46:06;9.27;;;4.75;;
53036;SDS011;38924;52.134;4.666;2023-04-27T11:48:38;6.63;;;3.72;;
53036;SDS011;38924;52.134;4.666;2023-04-27T11:51:04;9.43;;;3.70;;
53036;SDS011;38924;52.134;4.666;2023-04-27T11:53:37;7.28;;;3.47;;
53036;SDS011;38924;52.134;4.666;2023-04-27T11:56:03;8.13;;;4.20;;
53036;SDS011;38924;52.134;4.666;2023-04-27T11:58:33;6.65;;;3.97;;
53036;SDS011;38924;52.134;4.666;2023-04-27T12:00:59;6.30;;;4.15;;
53036;SDS011;38924;52.134;4.666;2023-04-27T12:03:26;4.35;;;3.95;;
53036;SDS011;38924;52.134;4.666;2023-04-27T12:05:52;6.15;;;3.75;;
53036;SDS011;38924;52.134;4.666;2023-04-27T12:08:18;8.85;;;4.28;;
53036;SDS011;38924;52.134;4.666;2023-04-27T12:10:45;7.20;;;4.40;;
53036;SDS011;38924;52.134;4.666;2023-04-27T12:13:11;7.47;;;3.80;;
53036;SDS011;38924;52.134;4.666;2023-04-27T12:15:37;7.00;;;3.92;;
53036;SDS011;38924;52.134;4.666;2023-04-27T12:18:03;6.05;;;3.83;;
53036;SDS011;38924;52.134;4.666;2023-04-27T12:20:28;5.80;;;4.40;;
53036;SDS011;38924;52.134;4.666;2023-04-27T12:22:55;7.07;;;4.75;;
53036;SDS011;38924;52.134;4.666;2023-04-27T12:25:21;6.22;;;5.10;;
53036;SDS011;38924;52.134;4.666;2023-04-27T12:27:47;7.07;;;4.40;;
53036;SDS011;38924;52.134;4.666;2023-04-27T12:30:13;7.97;;;4.05;;
53036;SDS011;38924;52.134;4.666;2023-04-27T12:32:39;9.80;;;5.78;;
53036;SDS011;38924;52.134;4.666;2023-04-27T12:35:08;6.13;;;4.15;;
53036;SDS011;38924;52.134;4.666;2023-04-27T12:37:35;4.72;;;4.20;;
53036;SDS011;38924;52.134;4.666;2023-04-27T12:40:01;7.90;;;3.90;;
53036;SDS011;38924;52.134;4.666;2023-04-27T12:42:30;11.20;;;4.47;;
53036;SDS011;38924;52.134;4.666;2023-04-27T12:44:56;9.27;;;4.30;;
53036;SDS011;38924;52.134;4.666;2023-04-27T12:47:22;5.80;;;4.20;;
53036;SDS011;38924;52.134;4.666;2023-04-27T12:49:47;7.15;;;4.10;;
53036;SDS011;38924;52.134;4.666;2023-04-27T12:52:13;10.77;;;4.47;;
53036;SDS011;38924;52.134;4.666;2023-04-27T12:54:39;6.63;;;4.28;;
53036;SDS011;38924;52.134;4.666;2023-04-27T12:57:05;5.82;;;3.58;;
53036;SDS011;38924;52.134;4.666;2023-04-27T12:59:31;9.65;;;5.03;;
53036;SDS011;38924;52.134;4.666;2023-04-27T13:01:57;6.10;;;4.03;;
53036;SDS011;38924;52.134;4.666;2023-04-27T13:04:23;7.95;;;5.07;;
53036;SDS011;38924;52.134;4.666;2023-04-27T13:06:48;5.22;;;4.05;;
53036;SDS011;38924;52.134;4.666;2023-04-27T13:09:14;7.50;;;4.20;;
53036;SDS011;38924;52.134;4.666;2023-04-27T13:11:41;8.57;;;4.63;;
53036;SDS011;38924;52.134;4.666;2023-04-27T13:14:06;8.98;;;4.78;;
53036;SDS011;38924;52.134;4.666;2023-04-27T13:16:32;9.32;;;4.90;;
53036;SDS011;38924;52.134;4.666;2023-04-27T13:19:00;6.70;;;4.35;;
53036;SDS011;38924;52.134;4.666;2023-04-27T13:21:26;5.65;;;3.90;;
53036;SDS011;38924;52.134;4.666;2023-04-27T13:23:52;9.25;;;4.18;;
53036;SDS011;38924;52.134;4.666;2023-04-27T13:26:19;6.82;;;4.80;;
53036;SDS011;38924;52.134;4.666;2023-04-27T13:28:45;5.18;;;4.38;;
53036;SDS011;38924;52.134;4.666;2023-04-27T13:31:11;10.13;;;6.07;;
53036;SDS011;38924;52.134;4.666;2023-04-27T13:33:38;9.00;;;5.00;;
53036;SDS011;38924;52.134;4.666;2023-04-27T13:36:04;8.15;;;4.90;;
53036;SDS011;38924;52.134;4.666;2023-04-27T13:38:30;7.22;;;4.38;;
53036;SDS011;38924;52.134;4.666;2023-04-27T13:40:56;8.05;;;4.00;;
53036;SDS011;38924;52.134;4.666;2023-04-27T13:43:21;6.88;;;4.45;;
53036;SDS011;38924;52.134;4.666;2023-04-27T13:45:47;6.00;;;4.40;;
53036;SDS011;38924;52.134;4.666;2023-04-27T13:48:14;8.60;;;4.57;;
53036;SDS011;38924;52.134;4.666;2023-04-27T13:50:39;9.60;;;4.72;;
53036;SDS011;38924;52.134;4.666;2023-04-27T13:53:05;7.78;;;4.80;;
53036;SDS011;38924;52.134;4.666;2023-04-27T13:55:31;6.85;;;5.05;;
53036;SDS011;38924;52.134;4.666;2023-04-27T13:57:56;8.10;;;5.75;;
53036;SDS011;38924;52.134;4.666;2023-04-27T14:00:22;7.15;;;4.95;;
53036;SDS011;38924;52.134;4.666;2023-04-27T14:02:48;13.30;;;8.98;;
53036;SDS011;38924;52.134;4.666;2023-04-27T14:05:14;8.40;;;5.78;;
53036;SDS011;38924;52.134;4.666;2023-04-27T14:07:41;8.50;;;5.18;;
53036;SDS011;38924;52.134;4.666;2023-04-27T14:10:10;12.85;;;5.72;;
53036;SDS011;38924;52.134;4.666;2023-04-27T14:12:35;7.63;;;5.60;;
53036;SDS011;38924;52.134;4.666;2023-04-27T14:15:01;8.18;;;5.03;;
53036;SDS011;38924;52.134;4.666;2023-04-27T14:17:27;8.00;;;5.25;;
53036;SDS011;38924;52.134;4.666;2023-04-27T14:19:53;8.68;;;5.13;;
53036;SDS011;38924;52.134;4.666;2023-04-27T14:22:18;7.82;;;5.07;;
53036;SDS011;38924;52.134;4.666;2023-04-27T14:24:44;9.70;;;6.97;;
53036;SDS011;38924;52.134;4.666;2023-04-27T14:27:10;21.45;;;10.45;;
53036;SDS011;38924;52.134;4.666;2023-04-27T14:29:35;9.20;;;5.53;;
53036;SDS011;38924;52.134;4.666;2023-04-27T14:32:01;21.42;;;11.45;;
53036;SDS011;38924;52.134;4.666;2023-04-27T14:34:27;7.43;;;5.07;;
53036;SDS011;38924;52.134;4.666;2023-04-27T14:36:53;29.10;;;17.42;;
53036;SDS011;38924;52.134;4.666;2023-04-27T14:39:18;8.25;;;5.15;;
53036;SDS011;38924;52.134;4.666;2023-04-27T14:41:44;8.05;;;6.00;;
53036;SDS011;38924;52.134;4.666;2023-04-27T14:44:09;10.32;;;5.07;;
53036;SDS011;38924;52.134;4.666;2023-04-27T14:46:35;5.95;;;4.03;;